Time,TemperatureF,DewpointF,PressureIn,WindDirection,WindDirectionDegrees,WindSpeedMPH,WindSpeedGustMPH,Humidity,HourlyPrecipIn,Conditions,Clouds,dailyrainin,SolarRadiationWatts/m^2,SoftwareType,DateUTC
2013-05-19 00:23:00,71.0,69.0,-100.00,East,84,1.0,3.0,95,0.00,,,0.00,0.000000,,2013-05-19 04:23:00,
2013-05-19 00:33:00,71.0,69.0,-100.00,East,84,1.0,3.0,95,0.00,,,0.00,0.000000,,2013-05-19 04:33:00,
2013-05-19 00:42:00,71.0,69.0,-100.00,East,84,1.0,3.0,95,0.00,,,0.00,0.000000,,2013-05-19 04:42:00,
2013-05-19 00:52:00,71.0,69.0,-100.00,East,84,1.0,3.0,95,0.00,,,0.00,0.000000,,2013-05-19 04:52:00,
2013-05-19 01:22:00,73.0,70.0,-100.00,SE,125,3.0,6.0,91,0.00,,,0.00,0.000000,,2013-05-19 05:22:00,
2013-05-19 01:32:00,73.0,70.0,-100.00,SE,125,3.0,6.0,91,0.00,,,0.00,0.000000,,2013-05-19 05:32:00,
2013-05-19 01:42:00,73.0,70.0,-100.00,SE,125,3.0,6.0,91,0.00,,,0.00,0.000000,,2013-05-19 05:42:00,
2013-05-19 01:51:00,73.0,70.0,-100.00,SE,125,3.0,6.0,91,0.00,,,0.00,0.000000,,2013-05-19 05:51:00,
2013-05-19 02:21:00,73.0,69.0,-100.00,SSE,167,7.0,10.0,87,0.00,,,0.00,0.000000,,2013-05-19 06:21:00,
2013-05-19 02:32:00,73.0,69.0,-100.00,SSE,167,7.0,10.0,87,0.00,,,0.00,0.000000,,2013-05-19 06:32:00,
2013-05-19 02:42:00,73.0,69.0,-100.00,SSE,167,7.0,10.0,87,0.00,,,0.00,0.000000,,2013-05-19 06:42:00,
2013-05-19 02:52:00,73.0,69.0,-100.00,SSE,167,7.0,10.0,87,0.00,,,0.00,0.000000,,2013-05-19 06:52:00,
2013-05-19 03:22:00,73.0,70.0,-100.00,SSE,164,5.0,10.0,90,0.00,,,0.00,0.000000,,2013-05-19 07:22:00,
2013-05-19 03:32:00,73.0,70.0,-100.00,SSE,164,5.0,10.0,90,0.00,,,0.00,0.000000,,2013-05-19 07:32:00,
2013-05-19 03:42:00,73.0,70.0,-100.00,SSE,164,5.0,10.0,90,0.00,,,0.00,0.000000,,2013-05-19 07:42:00,
2013-05-19 03:52:00,73.0,70.0,-100.00,SSE,164,5.0,10.0,90,0.00,,,0.00,0.000000,,2013-05-19 07:52:00,
2013-05-19 04:22:00,73.0,70.0,-100.00,SSE,168,4.0,7.0,90,0.00,,,0.00,0.000000,,2013-05-19 08:22:00,
2013-05-19 04:32:00,73.0,70.0,-100.00,SSE,168,4.0,7.0,90,0.00,,,0.00,0.000000,,2013-05-19 08:32:00,
2013-05-19 04:42:00,73.0,70.0,-100.00,SSE,168,4.0,7.0,90,0.00,,,0.00,0.000000,,2013-05-19 08:42:00,
2013-05-19 04:52:00,73.0,70.0,-100.00,SSE,168,4.0,7.0,90,0.00,,,0.00,0.000000,,2013-05-19 08:52:00,
2013-05-19 05:21:00,71.0,69.0,-100.00,South,178,3.0,4.0,95,0.00,,,0.00,0.000000,,2013-05-19 09:21:00,
2013-05-19 05:33:00,71.0,69.0,-100.00,South,178,3.0,4.0,95,0.00,,,0.00,0.000000,,2013-05-19 09:33:00,
2013-05-19 05:43:00,71.0,69.0,-100.00,South,178,3.0,4.0,95,0.00,,,0.00,0.000000,,2013-05-19 09:43:00,
2013-05-19 05:53:00,71.0,69.0,-100.00,South,178,3.0,4.0,95,0.00,,,0.00,0.000000,,2013-05-19 09:53:00,
2013-05-19 06:23:00,70.0,69.0,-100.00,ESE,110,0.0,3.0,97,0.00,,,0.00,0.000000,,2013-05-19 10:23:00,
2013-05-19 06:33:00,70.0,69.0,-100.00,ESE,110,0.0,3.0,97,0.00,,,0.00,0.000000,,2013-05-19 10:33:00,
2013-05-19 06:42:00,70.0,69.0,-100.00,ESE,110,0.0,3.0,97,0.00,,,0.00,0.000000,,2013-05-19 10:42:00,
2013-05-19 06:52:00,70.0,69.0,-100.00,ESE,110,0.0,3.0,97,0.00,,,0.00,0.000000,,2013-05-19 10:52:00,
2013-05-19 07:22:00,70.0,69.0,-100.00,NE,53,0.0,3.0,98,0.00,,,0.00,7.000000,,2013-05-19 11:22:00,
2013-05-19 07:32:00,70.0,69.0,-100.00,NE,53,0.0,3.0,98,0.00,,,0.00,7.000000,,2013-05-19 11:32:00,
2013-05-19 07:42:00,70.0,69.0,-100.00,NE,53,0.0,3.0,98,0.00,,,0.00,7.000000,,2013-05-19 11:42:00,
2013-05-19 07:52:00,70.0,69.0,-100.00,NE,53,0.0,3.0,98,0.00,,,0.00,7.000000,,2013-05-19 11:52:00,
2013-05-19 08:22:00,74.0,72.0,-100.00,East,90,1.0,4.0,93,0.00,,,0.00,107.000000,,2013-05-19 12:22:00,
2013-05-19 08:32:00,74.0,72.0,-100.00,East,90,1.0,4.0,93,0.00,,,0.00,107.000000,,2013-05-19 12:32:00,
2013-05-19 08:42:00,74.0,72.0,-100.00,East,90,1.0,4.0,93,0.00,,,0.00,107.000000,,2013-05-19 12:42:00,
2013-05-19 08:52:00,74.0,72.0,-100.00,East,90,1.0,4.0,93,0.00,,,0.00,107.000000,,2013-05-19 12:52:00,
2013-05-19 09:21:00,76.0,70.0,-100.00,ESE,122,4.0,6.0,83,0.00,,,0.00,190.000000,,2013-05-19 13:21:00,
2013-05-19 09:32:00,76.0,70.0,-100.00,ESE,122,4.0,6.0,83,0.00,,,0.00,190.000000,,2013-05-19 13:32:00,
2013-05-19 09:42:00,76.0,70.0,-100.00,ESE,122,4.0,6.0,83,0.00,,,0.00,190.000000,,2013-05-19 13:42:00,
2013-05-19 09:52:00,76.0,70.0,-100.00,ESE,122,4.0,6.0,83,0.00,,,0.00,190.000000,,2013-05-19 13:52:00,
2013-05-19 10:21:00,79.0,70.0,-100.00,SSE,153,7.0,10.0,75,0.00,,,0.00,355.000000,,2013-05-19 14:21:00,
2013-05-19 10:32:00,79.0,70.0,-100.00,SSE,153,7.0,10.0,75,0.00,,,0.00,355.000000,,2013-05-19 14:32:00,
2013-05-19 10:42:00,79.0,70.0,-100.00,SSE,153,7.0,10.0,75,0.00,,,0.00,355.000000,,2013-05-19 14:42:00,
2013-05-19 10:52:00,79.0,70.0,-100.00,SSE,153,7.0,10.0,75,0.00,,,0.00,355.000000,,2013-05-19 14:52:00,
2013-05-19 11:22:00,82.0,70.0,-100.00,South,172,10.0,14.0,68,0.00,,,0.00,636.000000,,2013-05-19 15:22:00,
2013-05-19 11:33:00,82.0,70.0,-100.00,South,172,10.0,14.0,68,0.00,,,0.00,636.000000,,2013-05-19 15:33:00,
2013-05-19 11:43:00,82.0,70.0,-100.00,South,172,10.0,14.0,68,0.00,,,0.00,636.000000,,2013-05-19 15:43:00,
2013-05-19 11:53:00,82.0,70.0,-100.00,South,172,10.0,14.0,68,0.00,,,0.00,636.000000,,2013-05-19 15:53:00,
2013-05-19 12:23:00,82.0,69.0,-100.00,South,172,13.0,18.0,65,0.00,,,0.00,1030.000000,,2013-05-19 16:23:00,
2013-05-19 12:32:00,82.0,69.0,-100.00,South,172,13.0,18.0,65,0.00,,,0.00,1030.000000,,2013-05-19 16:32:00,
2013-05-19 12:42:00,82.0,69.0,-100.00,South,172,13.0,18.0,65,0.00,,,0.00,1030.000000,,2013-05-19 16:42:00,
2013-05-19 12:52:00,82.0,69.0,-100.00,South,172,13.0,18.0,65,0.00,,,0.00,1030.000000,,2013-05-19 16:52:00,
2013-05-19 13:22:00,83.0,70.0,-100.00,South,171,14.0,19.0,65,0.00,,,0.00,925.000000,,2013-05-19 17:22:00,
2013-05-19 13:32:00,83.0,70.0,-100.00,South,171,14.0,19.0,65,0.00,,,0.00,925.000000,,2013-05-19 17:32:00,
2013-05-19 13:42:00,83.0,70.0,-100.00,South,171,14.0,19.0,65,0.00,,,0.00,925.000000,,2013-05-19 17:42:00,
2013-05-19 13:52:00,83.0,70.0,-100.00,South,171,14.0,19.0,65,0.00,,,0.00,925.000000,,2013-05-19 17:52:00,
2013-05-19 14:22:00,82.0,69.0,-100.00,SSE,165,14.0,21.0,64,0.00,,,0.00,968.000000,,2013-05-19 18:22:00,
2013-05-19 14:32:00,82.0,69.0,-100.00,SSE,165,14.0,21.0,64,0.00,,,0.00,968.000000,,2013-05-19 18:32:00,
2013-05-19 14:43:00,82.0,69.0,-100.00,SSE,165,14.0,21.0,64,0.00,,,0.00,968.000000,,2013-05-19 18:43:00,
2013-05-19 14:52:00,82.0,69.0,-100.00,SSE,165,14.0,21.0,64,0.00,,,0.00,968.000000,,2013-05-19 18:52:00,
2013-05-19 15:22:00,78.0,69.0,-100.00,South,170,10.0,19.0,74,0.00,,,0.00,301.000000,,2013-05-19 19:22:00,
2013-05-19 15:32:00,78.0,69.0,-100.00,South,170,10.0,19.0,74,0.00,,,0.00,301.000000,,2013-05-19 19:32:00,
2013-05-19 15:42:00,78.0,69.0,-100.00,South,170,10.0,19.0,74,0.00,,,0.00,301.000000,,2013-05-19 19:42:00,
2013-05-19 15:52:00,78.0,69.0,-100.00,South,170,10.0,19.0,74,0.00,,,0.00,301.000000,,2013-05-19 19:52:00,
2013-05-19 16:22:00,80.0,70.0,-100.00,SSE,161,10.0,14.0,71,0.00,,,0.00,353.000000,,2013-05-19 20:22:00,
2013-05-19 16:32:00,80.0,70.0,-100.00,SSE,161,10.0,14.0,71,0.00,,,0.00,353.000000,,2013-05-19 20:32:00,
2013-05-19 16:42:00,80.0,70.0,-100.00,SSE,161,10.0,14.0,71,0.00,,,0.00,353.000000,,2013-05-19 20:42:00,
2013-05-19 16:52:00,80.0,70.0,-100.00,SSE,161,10.0,14.0,71,0.00,,,0.00,353.000000,,2013-05-19 20:52:00,
2013-05-19 17:22:00,80.0,68.0,-100.00,SSE,160,11.0,17.0,68,0.00,,,0.00,689.000000,,2013-05-19 21:22:00,
2013-05-19 17:32:00,80.0,68.0,-100.00,SSE,160,11.0,17.0,68,0.00,,,0.00,689.000000,,2013-05-19 21:32:00,
2013-05-19 17:43:00,80.0,68.0,-100.00,SSE,160,11.0,17.0,68,0.00,,,0.00,689.000000,,2013-05-19 21:43:00,
2013-05-19 17:53:00,80.0,68.0,-100.00,SSE,160,11.0,17.0,68,0.00,,,0.00,689.000000,,2013-05-19 21:53:00,
2013-05-19 18:23:00,77.0,69.0,-100.00,SSE,163,8.0,13.0,77,0.00,,,0.00,180.000000,,2013-05-19 22:23:00,
2013-05-19 18:33:00,77.0,69.0,-100.00,SSE,163,8.0,13.0,77,0.00,,,0.00,180.000000,,2013-05-19 22:33:00,
2013-05-19 18:42:00,77.0,69.0,-100.00,SSE,163,8.0,13.0,77,0.00,,,0.00,180.000000,,2013-05-19 22:42:00,
2013-05-19 18:53:00,77.0,69.0,-100.00,SSE,163,8.0,13.0,77,0.00,,,0.00,180.000000,,2013-05-19 22:53:00,
2013-05-19 19:22:00,76.0,72.0,-100.00,SSE,155,6.0,12.0,86,0.00,,,0.00,124.000000,,2013-05-19 23:22:00,
2013-05-19 19:32:00,76.0,72.0,-100.00,SSE,155,6.0,12.0,86,0.00,,,0.00,124.000000,,2013-05-19 23:32:00,
2013-05-19 19:42:00,76.0,72.0,-100.00,SSE,155,6.0,12.0,86,0.00,,,0.00,124.000000,,2013-05-19 23:42:00,
2013-05-19 19:52:00,76.0,72.0,-100.00,SSE,155,6.0,12.0,86,0.00,,,0.00,124.000000,,2013-05-19 23:52:00,
2013-05-19 20:22:00,75.0,70.0,-100.00,SSE,150,5.0,9.0,85,0.00,,,0.00,55.000000,,2013-05-20 00:22:00,
2013-05-19 20:32:00,75.0,70.0,-100.00,SSE,150,5.0,9.0,85,0.00,,,0.00,55.000000,,2013-05-20 00:32:00,
2013-05-19 20:42:00,75.0,70.0,-100.00,SSE,150,5.0,9.0,85,0.00,,,0.00,55.000000,,2013-05-20 00:42:00,
2013-05-19 20:52:00,75.0,70.0,-100.00,SSE,150,5.0,9.0,85,0.00,,,0.00,55.000000,,2013-05-20 00:52:00,
2013-05-19 21:22:00,74.0,70.0,-100.00,SE,142,2.0,7.0,88,0.00,,,0.00,3.000000,,2013-05-20 01:22:00,
2013-05-19 21:32:00,74.0,70.0,-100.00,SE,142,2.0,7.0,88,0.00,,,0.00,3.000000,,2013-05-20 01:32:00,
2013-05-19 21:42:00,74.0,70.0,-100.00,SE,142,2.0,7.0,88,0.00,,,0.00,3.000000,,2013-05-20 01:42:00,
2013-05-19 21:52:00,74.0,70.0,-100.00,SE,142,2.0,7.0,88,0.00,,,0.00,3.000000,,2013-05-20 01:52:00,
2013-05-19 22:21:00,74.0,71.0,-100.00,SSE,154,5.0,7.0,89,0.00,,,0.00,0.000000,,2013-05-20 02:21:00,
2013-05-19 22:32:00,74.0,71.0,-100.00,SSE,154,5.0,7.0,89,0.00,,,0.00,0.000000,,2013-05-20 02:32:00,
2013-05-19 22:42:00,74.0,71.0,-100.00,SSE,154,5.0,7.0,89,0.00,,,0.00,0.000000,,2013-05-20 02:42:00,
2013-05-19 22:51:00,74.0,71.0,-100.00,SSE,154,5.0,7.0,89,0.00,,,0.00,0.000000,,2013-05-20 02:51:00,
2013-05-19 23:21:00,73.0,70.0,-100.00,SE,143,5.0,9.0,91,0.00,,,0.00,0.000000,,2013-05-20 03:21:00,
2013-05-19 23:33:00,73.0,70.0,-100.00,SE,143,5.0,9.0,91,0.00,,,0.00,0.000000,,2013-05-20 03:33:00,
2013-05-19 23:43:00,73.0,70.0,-100.00,SE,143,5.0,9.0,91,0.00,,,0.00,0.000000,,2013-05-20 03:43:00,
2013-05-19 23:52:00,73.0,70.0,-100.00,SE,143,5.0,9.0,91,0.00,,,0.00,0.000000,,2013-05-20 03:52:00,